KCBM/CBM METAR and TAF weather

Enter ICAO airport designator
Station Type Date Time Source
KCBM METAR 2019/12/07 09:56 UTC NOAA

KCBM 070956Z AUTO 01009KT 10SM BKN009 OVC040 11/09 A3021 RMK AO2 CIG 008 RWY31C SLP233 T01070091 $


Station Type Date Time Source
KCBM Decoded METAR 2019/12/07 09:56 UTC NOAA

Columbus Air Force Base, MS, United States (KCBM) 33-39N 088-27W
Dec 07, 2019 - 04:56 AM EST / 2019.12.07 0956 UTC
Wind: from the N (010 degrees) at 10 MPH (9 KT):0
Visibility: 10 mile(s):0
Sky conditions: overcast
Temperature: 51.3 F (10.7 C)
Dew Point: 48.4 F (9.1 C)
Relative Humidity: 89%
Pressure (altimeter): 30.21 in. Hg (1023 hPa)
ob: KCBM 070956Z AUTO 01009KT 10SM BKN009 OVC040 11/09 A3021 RMK AO2 CIG 008 RWY31C SLP233 T01070091
cycle: 10

Station Type Date Time Source
KCBM TAF 2019/12/06 23:59 UTC NOAA

TAF
AMD KCBM 062300Z 0623/0723 VRB06KT 9999 BKN008 OVC020 QNH3009INS
BECMG 0710/0711 36006KT 6000 BR SCT005 BKN015 QNH3019INS
BECMG 0717/0718 VRB06KT 9999 NSW FEW015 SCT030 QNH3021INS
BECMG 0721/0722 VRB06KT 9999 BKN030 QNH3020INS TX12/0717Z TN08/0712Z LAST NO
AMDS AFT 0623 NEXT 0815

Example: see airport list